METAR Data
IDs: Format: Raw Decoded Include TAF

Data at: 1606 UTC 18 Feb 2019

METAR for:KGGI (Grinnell Rgnl, IA, US)
Text:KGGI 181555Z AUTO 32008KT 10SM CLR M11/M12 A3041 RMK AO2 T11071116
Temperature:-10.7°C ( 13°F)
Dewpoint:-11.6°C ( 11°F) [RH = 93%]
Pressure (altimeter):30.41 inches Hg (1029.9 mb)
Winds:from the NW (320 degrees) at 9 MPH (8 knots; 4.1 m/s)
Visibility:10 or more sm (16+ km)
Ceiling:at least 12,000 feet AGL
Clouds:sky clear below 12,000 feet AGL
QC Flag:automated observation with no human augmentation